Time;durP1;ratioP1;P1;durP2;ratioP2;P2;SDS_P1;SDS_P2;PMS_P1;PMS_P2;Temp;Humidity;BMP_temperature;BMP_pressure;BME280_temperature;BME280_humidity;BME280_pressure;Samples;Min_cycle;Max_cycle;Signal;HPM_P1;HPM_P2
2022/05/08 00:02:31;;;;;;;25.75;4.30;;;8.10;99.90;;;;;;5006398;28;20046;-63
2022/05/08 00:04:56;;;;;;;24.75;4.15;;;8.10;99.90;;;;;;5010308;28;20133;-63
2022/05/08 00:07:22;;;;;;;21.90;4.32;;;8.10;99.90;;;;;;4990946;28;20034;-63
2022/05/08 00:09:49;;;;;;;17.92;3.15;;;8.00;99.90;;;;;;4990581;28;20168;-64
2022/05/08 00:12:16;;;;;;;16.70;2.55;;;8.10;99.90;;;;;;5008470;28;20049;-63
2022/05/08 00:14:42;;;;;;;19.67;4.25;;;8.10;99.90;;;;;;4987785;28;20050;-63
2022/05/08 00:17:13;;;;;;;19.92;3.40;;;8.00;99.90;;;;;;4993515;28;20407;-63
2022/05/08 00:19:43;;;;;;;19.13;3.63;;;8.00;99.90;;;;;;5008155;28;20045;-63
2022/05/08 00:22:11;;;;;;;16.70;3.45;;;7.90;99.90;;;;;;4991511;28;20048;-63
2022/05/08 00:24:37;;;;;;;15.32;3.38;;;8.00;99.90;;;;;;5010062;28;20038;-63
2022/05/08 00:27:03;;;;;;;22.02;3.70;;;8.00;99.90;;;;;;4992520;28;20048;-63
2022/05/08 00:29:28;;;;;;;17.83;3.63;;;8.00;99.90;;;;;;4993967;28;20034;-64
2022/05/08 00:31:54;;;;;;;15.40;3.05;;;7.90;99.90;;;;;;5005879;28;20038;-64
2022/05/08 00:34:20;;;;;;;27.08;3.83;;;7.90;99.90;;;;;;5010143;28;20412;-63
2022/05/08 00:36:45;;;;;;;16.45;3.75;;;7.80;99.90;;;;;;4990876;28;20045;-63
2022/05/08 00:39:11;;;;;;;15.90;2.83;;;7.80;99.90;;;;;;5003949;28;20038;-64
2022/05/08 00:41:36;;;;;;;27.13;3.95;;;7.80;99.90;;;;;;5010118;28;20042;-64
2022/05/08 00:44:03;;;;;;;27.67;3.95;;;7.80;99.90;;;;;;5005659;28;20125;-63
2022/05/08 00:46:29;;;;;;;21.27;3.55;;;7.90;99.90;;;;;;4984957;28;20694;-64
2022/05/08 00:48:55;;;;;;;16.25;3.25;;;7.90;99.90;;;;;;5007268;28;20493;-63
2022/05/08 00:51:21;;;;;;;23.40;3.40;;;7.90;99.90;;;;;;4992144;28;20431;-63
2022/05/08 00:53:50;;;;;;;18.52;3.58;;;7.80;99.90;;;;;;5004238;28;20046;-64
2022/05/08 00:56:16;;;;;;;19.65;3.50;;;7.80;99.90;;;;;;5007197;28;20428;-64
2022/05/08 00:58:44;;;;;;;26.08;4.18;;;7.70;99.90;;;;;;4975257;28;20129;-64
2022/05/08 01:01:11;;;;;;;18.98;3.88;;;7.80;99.90;;;;;;4988698;28;20042;-63
2022/05/08 01:03:38;;;;;;;19.73;4.30;;;7.80;99.90;;;;;;4990437;28;20043;-63
2022/05/08 01:06:09;;;;;;;20.50;3.58;;;7.80;99.90;;;;;;5005267;28;20042;-63
2022/05/08 01:08:38;;;;;;;17.65;4.00;;;7.80;99.90;;;;;;5006947;28;20034;-63
2022/05/08 01:11:05;;;;;;;24.38;4.18;;;7.70;99.90;;;;;;5007667;28;20045;-63
2022/05/08 01:13:31;;;;;;;28.98;3.58;;;7.70;99.90;;;;;;4991252;28;20034;-64
2022/05/08 01:15:57;;;;;;;45.10;5.78;;;7.70;99.90;;;;;;5006689;28;20049;-63
2022/05/08 01:18:23;;;;;;;22.92;4.43;;;7.70;99.90;;;;;;5005458;28;20506;-63
2022/05/08 01:20:50;;;;;;;22.40;3.75;;;7.70;99.90;;;;;;4971351;28;20493;-63
2022/05/08 01:23:18;;;;;;;21.05;4.05;;;7.60;99.90;;;;;;4990113;28;20570;-64
2022/05/08 01:25:51;;;;;;;21.08;3.83;;;7.60;99.90;;;;;;4991510;28;20524;-63
2022/05/08 01:28:18;;;;;;;15.63;3.08;;;7.60;99.90;;;;;;5005819;28;20033;-63
2022/05/08 01:30:45;;;;;;;23.00;4.53;;;7.70;99.90;;;;;;4991548;28;20818;-63
2022/05/08 01:33:11;;;;;;;22.02;3.42;;;7.60;99.90;;;;;;4985569;28;20128;-63
2022/05/08 01:35:37;;;;;;;18.55;3.65;;;7.60;99.90;;;;;;4988647;28;20207;-63
2022/05/08 01:38:04;;;;;;;21.85;4.57;;;7.60;99.90;;;;;;4986541;28;20053;-64
2022/05/08 01:40:30;;;;;;;12.00;2.97;;;7.50;99.90;;;;;;4991470;28;20080;-63
2022/05/08 01:42:57;;;;;;;20.52;3.80;;;7.50;99.90;;;;;;4987222;28;20374;-63
2022/05/08 01:45:23;;;;;;;22.63;4.30;;;7.50;99.90;;;;;;5003594;28;20405;-63
2022/05/08 01:50:34;;;;;;;20.35;3.53;;;7.40;99.90;;;;;;4985996;28;20045;-63
2022/05/08 01:53:00;;;;;;;16.60;3.95;;;7.30;99.90;;;;;;4989951;28;20133;-63
2022/05/08 01:55:25;;;;;;;19.35;4.50;;;7.30;99.90;;;;;;5004948;28;20036;-63
2022/05/08 01:57:53;;;;;;;15.32;3.13;;;7.30;99.90;;;;;;4990687;28;20455;-63
2022/05/08 02:00:22;;;;;;;27.90;5.15;;;7.20;99.90;;;;;;5001656;28;20033;-63
2022/05/08 02:02:49;;;;;;;19.73;3.45;;;7.20;99.90;;;;;;4987700;28;20097;-63
2022/05/08 02:05:21;;;;;;;20.02;4.07;;;7.20;99.90;;;;;;5004955;28;20448;-63
2022/05/08 02:07:48;;;;;;;21.65;3.97;;;7.20;99.90;;;;;;4987618;28;20041;-63
2022/05/08 02:10:16;;;;;;;19.63;4.05;;;7.20;99.90;;;;;;4988968;28;20121;-63
2022/05/08 02:12:43;;;;;;;22.80;4.80;;;7.10;99.90;;;;;;5007767;28;20049;-63
2022/05/08 02:15:10;;;;;;;24.08;4.43;;;7.10;99.90;;;;;;4989764;28;20054;-63
2022/05/08 02:17:36;;;;;;;19.67;4.50;;;7.10;99.90;;;;;;4983910;28;20033;-63
2022/05/08 02:20:03;;;;;;;17.38;3.95;;;7.10;99.90;;;;;;4988980;28;20041;-63
2022/05/08 02:22:29;;;;;;;26.23;4.18;;;7.10;99.90;;;;;;4988401;28;20081;-63
2022/05/08 02:24:54;;;;;;;23.67;3.80;;;7.10;99.90;;;;;;4990248;28;20041;-63
2022/05/08 02:27:20;;;;;;;21.30;3.85;;;7.10;99.90;;;;;;5008640;28;20025;-63
2022/05/08 02:29:50;;;;;;;14.90;4.05;;;7.10;99.90;;;;;;5006397;28;20038;-63
2022/05/08 02:32:16;;;;;;;17.42;3.67;;;7.10;99.90;;;;;;5003082;28;20244;-64
2022/05/08 02:34:42;;;;;;;15.05;2.83;;;7.00;99.90;;;;;;5005270;28;20133;-64
2022/05/08 02:37:08;;;;;;;21.17;3.55;;;7.10;99.90;;;;;;4985133;28;20048;-63
2022/05/08 02:39:33;;;;;;;21.48;4.10;;;7.10;99.90;;;;;;5005873;28;20042;-63
2022/05/08 02:41:59;;;;;;;18.70;3.97;;;7.10;99.90;;;;;;5003371;28;20121;-63
2022/05/08 02:44:24;;;;;;;12.23;2.92;;;7.10;99.90;;;;;;5003936;28;20061;-63
2022/05/08 02:46:50;;;;;;;25.17;4.85;;;7.00;99.90;;;;;;5006579;28;20044;-63
2022/05/08 02:49:16;;;;;;;17.88;4.07;;;7.00;99.90;;;;;;4986399;28;20467;-64
2022/05/08 02:51:41;;;;;;;15.00;3.63;;;7.00;99.90;;;;;;4989921;28;20045;-63
2022/05/08 02:54:07;;;;;;;16.05;4.70;;;7.00;99.90;;;;;;4989369;28;20054;-63
2022/05/08 02:59:17;;;;;;;20.67;4.80;;;7.00;99.90;;;;;;5003475;28;20049;-63
2022/05/08 03:01:43;;;;;;;15.40;3.15;;;7.00;99.90;;;;;;5003157;28;20504;-63
2022/05/08 03:04:08;;;;;;;16.58;4.10;;;7.00;99.90;;;;;;4987525;28;20041;-63
2022/05/08 03:06:34;;;;;;;15.95;2.47;;;7.00;99.90;;;;;;4989603;28;20636;-63
2022/05/08 03:08:59;;;;;;;16.98;3.30;;;7.00;99.90;;;;;;4987848;28;20083;-63
2022/05/08 03:11:25;;;;;;;17.23;3.05;;;7.00;99.90;;;;;;4987597;28;20042;-63
2022/05/08 03:13:51;;;;;;;16.60;3.35;;;7.00;99.90;;;;;;5002977;28;20042;-63
2022/05/08 03:16:17;;;;;;;14.90;2.95;;;7.00;99.90;;;;;;5005965;28;20040;-63
2022/05/08 03:18:44;;;;;;;18.60;3.28;;;7.00;99.90;;;;;;4986022;28;20428;-63
2022/05/08 03:21:12;;;;;;;12.88;3.10;;;7.00;99.90;;;;;;5006482;28;20042;-63
2022/05/08 03:23:38;;;;;;;19.73;3.25;;;6.90;99.90;;;;;;5006365;28;20077;-63
2022/05/08 03:26:04;;;;;;;14.15;2.92;;;7.00;99.90;;;;;;5004772;28;20404;-63
2022/05/08 03:28:31;;;;;;;13.88;3.45;;;6.90;99.90;;;;;;4984304;28;20121;-63
2022/05/08 03:30:58;;;;;;;13.02;3.45;;;6.90;99.90;;;;;;5002934;28;20046;-63
2022/05/08 03:33:24;;;;;;;12.25;2.72;;;6.90;99.90;;;;;;4987021;28;20128;-63
2022/05/08 03:35:49;;;;;;;15.15;2.90;;;6.80;99.90;;;;;;4989287;28;20501;-63
2022/05/08 03:38:15;;;;;;;12.63;3.53;;;6.80;99.90;;;;;;4985393;28;20037;-63
2022/05/08 03:40:40;;;;;;;7.20;2.25;;;6.80;99.90;;;;;;4982756;28;20057;-63
2022/05/08 03:43:06;;;;;;;6.75;1.67;;;6.70;99.90;;;;;;4984269;28;20135;-63
2022/05/08 03:45:32;;;;;;;8.68;2.28;;;6.70;99.90;;;;;;4986571;28;20061;-63
2022/05/08 03:48:00;;;;;;;8.35;2.03;;;6.60;99.90;;;;;;5002684;28;20052;-63
2022/05/08 03:50:26;;;;;;;7.35;1.95;;;6.50;99.90;;;;;;4986947;28;20608;-63
2022/05/08 03:52:52;;;;;;;14.15;1.77;;;6.50;99.90;;;;;;4987464;28;20049;-63
2022/05/08 03:55:17;;;;;;;11.00;2.42;;;6.40;99.90;;;;;;4985867;28;20045;-63
2022/05/08 03:57:46;;;;;;;15.75;2.92;;;6.40;99.90;;;;;;4990316;28;20408;-63
2022/05/08 04:00:13;;;;;;;15.23;3.75;;;6.10;99.90;;;;;;5000909;28;20894;-63
2022/05/08 04:02:40;;;;;;;12.90;2.95;;;6.40;99.90;;;;;;5003384;28;20046;-63
2022/05/08 04:05:07;;;;;;;19.88;4.45;;;6.40;99.90;;;;;;5005211;28;20167;-63
2022/05/08 04:07:33;;;;;;;10.00;2.70;;;6.40;99.90;;;;;;4987575;28;20117;-63
2022/05/08 04:09:59;;;;;;;9.10;2.15;;;6.40;99.90;;;;;;4985909;28;20050;-63
2022/05/08 04:12:26;;;;;;;13.20;3.65;;;6.50;99.90;;;;;;4987462;28;20721;-63
2022/05/08 04:14:52;;;;;;;9.73;3.10;;;6.50;99.90;;;;;;4985176;28;20054;-63
2022/05/08 04:17:18;;;;;;;13.65;4.05;;;6.70;99.90;;;;;;4988859;28;20107;-63
2022/05/08 04:19:44;;;;;;;15.05;3.53;;;6.90;99.90;;;;;;4972160;28;20457;-63
2022/05/08 04:24:54;;;;;;;17.17;2.83;;;7.60;99.90;;;;;;5008045;28;20053;-63
2022/05/08 04:27:19;;;;;;;10.90;2.35;;;8.20;99.90;;;;;;5008746;28;20054;-63
2022/05/08 04:29:45;;;;;;;11.45;2.90;;;8.60;99.90;;;;;;4988124;28;20054;-63
2022/05/08 04:32:11;;;;;;;10.02;2.53;;;9.00;99.90;;;;;;5006397;28;20548;-63
2022/05/08 04:34:36;;;;;;;10.95;2.60;;;9.30;99.90;;;;;;4991317;28;20050;-63
2022/05/08 04:37:03;;;;;;;11.52;2.47;;;9.60;99.90;;;;;;4991907;28;20038;-63
2022/05/08 04:39:29;;;;;;;11.40;2.60;;;9.70;99.90;;;;;;5008258;28;20030;-63
2022/05/08 04:41:55;;;;;;;9.75;3.00;;;10.00;99.90;;;;;;5007741;28;20038;-64
2022/05/08 04:44:21;;;;;;;10.10;2.67;;;10.40;99.90;;;;;;5004941;28;20029;-64
2022/05/08 04:46:47;;;;;;;12.70;3.10;;;10.70;99.90;;;;;;5010017;28;20048;-64
2022/05/08 04:49:13;;;;;;;11.07;2.53;;;11.10;99.90;;;;;;4989469;28;20045;-63
2022/05/08 04:51:38;;;;;;;16.33;2.83;;;11.50;99.90;;;;;;4988617;28;20428;-63
2022/05/08 04:54:04;;;;;;;7.95;2.45;;;11.80;99.90;;;;;;4990609;28;20042;-64
2022/05/08 04:56:31;;;;;;;9.95;2.40;;;12.00;99.90;;;;;;4990567;28;20416;-64
2022/05/08 04:58:57;;;;;;;11.20;2.78;;;12.20;99.90;;;;;;4989846;28;20057;-65
2022/05/08 05:01:23;;;;;;;8.90;2.83;;;12.30;99.90;;;;;;5006509;28;20523;-64
2022/05/08 05:03:49;;;;;;;13.25;2.75;;;12.50;99.90;;;;;;5007358;28;20065;-64
2022/05/08 05:06:15;;;;;;;14.60;3.13;;;12.80;99.90;;;;;;4989709;28;20057;-64
2022/05/08 05:08:41;;;;;;;12.32;2.25;;;13.20;99.90;;;;;;4988337;28;20039;-64
2022/05/08 05:11:08;;;;;;;11.10;2.40;;;13.70;99.90;;;;;;4990280;28;20712;-64
2022/05/08 05:13:37;;;;;;;8.68;2.13;;;14.50;99.90;;;;;;5007916;28;20470;-64
2022/05/08 05:16:03;;;;;;;15.82;2.95;;;15.50;99.90;;;;;;4990932;28;20145;-64
2022/05/08 05:18:29;;;;;;;11.15;2.38;;;16.50;99.90;;;;;;4989479;28;20041;-64
2022/05/08 05:21:01;;;;;;;11.95;2.33;;;17.60;99.90;;;;;;4984579;28;20045;-64
2022/05/08 05:23:27;;;;;;;15.48;2.50;;;18.60;99.90;;;;;;4990073;28;20050;-64
2022/05/08 05:25:52;;;;;;;7.95;1.90;;;19.30;96.60;;;;;;5006251;28;20037;-64
2022/05/08 05:28:18;;;;;;;5.70;1.80;;;20.10;94.60;;;;;;5002410;28;20072;-64
2022/05/08 05:30:44;;;;;;;7.72;2.15;;;21.00;91.60;;;;;;4980909;28;20104;-64
2022/05/08 05:33:15;;;;;;;8.45;1.77;;;21.70;87.90;;;;;;4979270;28;20137;-64
2022/05/08 05:35:42;;;;;;;8.23;2.42;;;22.30;83.10;;;;;;4980510;28;20049;-65
2022/05/08 05:38:08;;;;;;;8.20;2.38;;;22.90;76.90;;;;;;4998775;28;20038;-65
2022/05/08 05:40:34;;;;;;;11.45;1.80;;;23.20;69.40;;;;;;5007633;28;20042;-65
2022/05/08 05:43:00;;;;;;;7.90;2.47;;;23.30;64.70;;;;;;5004553;28;20060;-65
2022/05/08 05:45:26;;;;;;;7.65;1.60;;;23.30;63.70;;;;;;4996461;28;20444;-65
2022/05/08 05:47:54;;;;;;;10.00;1.90;;;23.10;62.30;;;;;;4981937;28;20432;-65
2022/05/08 05:50:21;;;;;;;10.88;2.53;;;22.30;62.30;;;;;;4980439;28;20053;-65
2022/05/08 05:52:47;;;;;;;8.55;3.03;;;21.50;63.90;;;;;;4994395;28;20088;-65
2022/05/08 05:55:13;;;;;;;12.30;2.38;;;21.10;66.60;;;;;;4995704;28;20103;-64
2022/05/08 05:57:39;;;;;;;6.18;1.63;;;20.70;68.60;;;;;;4978905;28;20041;-65
2022/05/08 06:00:11;;;;;;;5.95;1.48;;;20.30;68.00;;;;;;4997382;28;21983;-65
2022/05/08 06:02:37;;;;;;;10.57;2.60;;;20.00;67.70;;;;;;4990576;28;20041;-65
2022/05/08 06:05:04;;;;;;;25.10;2.17;;;19.20;68.10;;;;;;4980380;28;20054;-65
2022/05/08 06:07:29;;;;;;;9.95;2.22;;;18.60;70.70;;;;;;4995802;28;21100;-65
2022/05/08 06:09:55;;;;;;;5.45;1.77;;;18.10;71.90;;;;;;4979440;28;20050;-65
2022/05/08 06:12:20;;;;;;;7.63;1.73;;;17.80;74.00;;;;;;4980349;28;20248;-65
2022/05/08 06:14:46;;;;;;;9.70;2.72;;;17.70;74.70;;;;;;4994811;28;20503;-65
2022/05/08 06:17:13;;;;;;;13.68;2.08;;;17.40;75.60;;;;;;4975787;28;20034;-65
2022/05/08 06:19:39;;;;;;;9.23;1.67;;;17.40;76.30;;;;;;4974926;28;20048;-64
2022/05/08 06:22:04;;;;;;;6.88;1.60;;;17.10;77.30;;;;;;4990785;28;20046;-65
2022/05/08 06:24:30;;;;;;;5.32;1.40;;;17.10;76.20;;;;;;4989169;28;20042;-65
2022/05/08 06:26:56;;;;;;;14.48;1.75;;;16.90;77.50;;;;;;4991930;28;20971;-65
2022/05/08 06:29:22;;;;;;;8.85;1.73;;;16.90;77.80;;;;;;4991681;28;20049;-65
2022/05/08 06:31:50;;;;;;;8.57;1.55;;;16.90;78.40;;;;;;4976748;28;20042;-64
2022/05/08 06:34:16;;;;;;;7.80;1.38;;;16.90;77.80;;;;;;4998168;28;20128;-64
2022/05/08 06:36:42;;;;;;;6.60;1.33;;;16.90;77.10;;;;;;4995443;28;20038;-64
2022/05/08 06:39:07;;;;;;;10.95;2.25;;;16.30;76.30;;;;;;4978853;28;20098;-64
2022/05/08 06:41:33;;;;;;;6.80;1.05;;;15.80;76.70;;;;;;4994276;28;20056;-65
2022/05/08 06:43:59;;;;;;;11.13;1.73;;;15.40;77.10;;;;;;4992582;28;20050;-64
2022/05/08 06:46:25;;;;;;;7.18;0.80;;;15.20;78.90;;;;;;4975752;28;20052;-64
2022/05/08 06:48:51;;;;;;;6.85;0.90;;;15.00;79.80;;;;;;4971988;28;20455;-65
2022/05/08 06:51:16;;;;;;;9.63;1.33;;;14.90;80.20;;;;;;4973781;28;20104;-64
2022/05/08 06:53:46;;;;;;;5.60;0.90;;;15.00;82.30;;;;;;4978297;28;20103;-64
2022/05/08 06:56:16;;;;;;;7.10;1.20;;;14.90;83.00;;;;;;4997019;28;20060;-64
2022/05/08 07:01:36;;;;;;;6.22;1.17;;;14.70;80.90;;;;;;4979612;28;20054;-64
2022/05/08 07:04:06;;;;;;;;;;;14.50;81.80;;;;;;4994099;28;20444;-64
2022/05/08 07:06:32;;;;;;;9.63;1.20;;;14.10;84.40;;;;;;4977701;28;19925;-64
2022/05/08 07:08:57;;;;;;;9.23;1.45;;;13.90;85.00;;;;;;4970610;28;20045;-64
2022/05/08 07:11:23;;;;;;;8.30;1.30;;;14.00;86.30;;;;;;4993127;28;20033;-64
2022/05/08 07:13:49;;;;;;;8.38;1.92;;;14.10;87.40;;;;;;4995079;28;20133;-64
2022/05/08 07:16:15;;;;;;;5.55;1.00;;;14.30;89.20;;;;;;4974717;28;20057;-64
2022/05/08 07:18:41;;;;;;;9.02;1.95;;;14.50;86.60;;;;;;4976294;28;20053;-64
2022/05/08 07:21:07;;;;;;;8.07;0.73;;;14.40;88.20;;;;;;4963324;28;20124;-64
2022/05/08 07:23:32;;;;;;;7.45;1.25;;;14.30;89.30;;;;;;4972613;28;20446;-64
2022/05/08 07:25:58;;;;;;;8.05;1.02;;;14.30;90.10;;;;;;4988584;28;20065;-64
2022/05/08 07:28:24;;;;;;;8.48;1.02;;;14.20;90.30;;;;;;4977443;28;20034;-64
2022/05/08 07:30:50;;;;;;;7.70;1.40;;;14.10;90.50;;;;;;4995664;28;20042;-64
2022/05/08 07:33:19;;;;;;;8.65;1.10;;;14.30;91.90;;;;;;4977254;28;20046;-64
2022/05/08 07:38:31;;;;;;;8.20;1.48;;;14.80;91.50;;;;;;4988608;28;20073;-64
2022/05/08 07:40:58;;;;;;;7.90;1.20;;;14.90;91.20;;;;;;4991093;28;20045;-64
2022/05/08 07:43:24;;;;;;;7.00;1.00;;;14.70;88.80;;;;;;4989772;28;20104;-64
2022/05/08 07:45:50;;;;;;;9.13;1.55;;;14.80;90.60;;;;;;4988679;28;20050;-64
2022/05/08 07:48:19;;;;;;;12.38;1.77;;;15.00;91.60;;;;;;4973602;28;20049;-63
2022/05/08 07:50:45;;;;;;;7.68;1.25;;;15.20;90.00;;;;;;4974601;28;20093;-64
2022/05/08 07:53:12;;;;;;;8.15;1.10;;;15.30;88.30;;;;;;4972307;28;20061;-64
2022/05/08 07:55:38;;;;;;;9.02;1.20;;;15.30;89.10;;;;;;4986207;28;20056;-64
2022/05/08 07:58:04;;;;;;;9.00;1.70;;;15.10;86.30;;;;;;4991654;28;20053;-64
2022/05/08 08:00:30;;;;;;;6.22;1.20;;;14.80;87.60;;;;;;4972540;28;20100;-64
2022/05/08 08:02:56;;;;;;;6.82;1.38;;;14.80;87.80;;;;;;4977105;28;20060;-64
2022/05/08 08:05:22;;;;;;;4.57;1.00;;;14.80;89.00;;;;;;4993780;28;20037;-64
2022/05/08 08:07:48;;;;;;;8.30;1.58;;;14.80;90.80;;;;;;4974327;28;20038;-64
2022/05/08 08:10:14;;;;;;;10.07;1.33;;;15.00;90.40;;;;;;4973318;28;20069;-64
2022/05/08 08:12:40;;;;;;;6.57;1.20;;;15.10;90.10;;;;;;4992506;28;20041;-64
2022/05/08 08:15:06;;;;;;;11.50;2.08;;;15.20;87.70;;;;;;4973462;28;20153;-64
2022/05/08 08:17:31;;;;;;;8.68;1.95;;;15.10;87.20;;;;;;4972873;28;20042;-64
2022/05/08 08:19:57;;;;;;;14.88;2.15;;;15.10;88.60;;;;;;4973336;28;20409;-63
2022/05/08 08:22:23;;;;;;;7.40;1.25;;;15.00;88.70;;;;;;4997053;28;20048;-64
2022/05/08 08:24:49;;;;;;;12.18;1.10;;;14.90;89.20;;;;;;4977452;28;20049;-64
2022/05/08 08:27:19;;;;;;;7.25;1.30;;;15.10;87.80;;;;;;4998575;28;21653;-64
2022/05/08 08:29:45;;;;;;;9.32;1.40;;;15.10;88.00;;;;;;4975760;28;20455;-64
2022/05/08 08:32:11;;;;;;;14.45;1.60;;;15.30;87.60;;;;;;4995549;28;20484;-64
2022/05/08 08:34:36;;;;;;;8.95;1.48;;;15.50;87.90;;;;;;4998854;28;20083;-64
2022/05/08 08:37:02;;;;;;;12.32;1.55;;;15.60;87.60;;;;;;4981561;28;20049;-64
2022/05/08 08:39:27;;;;;;;7.25;1.60;;;15.80;88.90;;;;;;4997016;28;20053;-64
2022/05/08 08:42:03;;;;;;;11.90;2.28;;;15.80;86.40;;;;;;4981101;28;20048;-64
2022/05/08 08:50:01;;;;;;;5.28;1.13;;;15.90;87.00;;;;;;4982270;28;20603;-64
2022/05/08 08:52:27;;;;;;;18.08;1.90;;;15.90;81.10;;;;;;4982030;28;20077;-64
2022/05/08 08:54:53;;;;;;;11.90;1.50;;;15.80;84.50;;;;;;4982723;28;20125;-64
2022/05/08 08:57:19;;;;;;;7.65;1.10;;;15.70;83.80;;;;;;4965117;28;20050;-64
2022/05/08 08:59:44;;;;;;;9.82;1.27;;;15.90;86.70;;;;;;4981292;28;20069;-64
2022/05/08 09:02:18;;;;;;;13.65;2.00;;;16.20;87.20;;;;;;4982865;28;20073;-64
2022/05/08 09:04:45;;;;;;;12.02;1.45;;;16.40;83.30;;;;;;4983822;28;20060;-64
2022/05/08 09:07:34;;;;;;;8.95;1.85;;;16.20;83.00;;;;;;5001199;28;20085;-64
2022/05/08 09:10:07;;;;;;;7.68;1.52;;;16.40;80.30;;;;;;5001862;28;20484;-64
2022/05/08 09:12:34;;;;;;;8.85;1.27;;;16.40;81.40;;;;;;4980950;28;20034;-64
2022/05/08 09:14:59;;;;;;;10.25;2.25;;;16.50;82.30;;;;;;5000527;28;20037;-64
2022/05/08 09:17:43;;;;;;;7.32;1.15;;;16.50;81.60;;;;;;4997097;28;20050;-64
2022/05/08 09:20:33;;;;;;;8.90;1.98;;;16.40;79.10;;;;;;4980543;28;20037;-64
2022/05/08 09:23:07;;;;;;;9.63;1.35;;;16.30;80.10;;;;;;4967589;28;21379;-64
2022/05/08 09:25:55;;;;;;;8.02;1.23;;;16.50;81.70;;;;;;4981812;28;20050;-64
2022/05/08 09:28:28;;;;;;;10.27;1.70;;;16.70;80.20;;;;;;4997605;28;20041;-64
2022/05/08 09:31:03;;;;;;;10.35;1.67;;;16.70;79.30;;;;;;4978883;28;21781;-64
2022/05/08 09:33:33;;;;;;;14.73;2.13;;;16.70;78.80;;;;;;4998860;28;20717;-64
2022/05/08 09:36:01;;;;;;;7.38;1.33;;;16.80;80.10;;;;;;4999366;28;20299;-64
2022/05/08 09:38:51;;;;;;;7.78;1.25;;;17.00;78.30;;;;;;4979516;28;20138;-64
2022/05/08 09:41:26;;;;;;;9.63;1.73;;;16.90;76.80;;;;;;4979535;28;20053;-64
2022/05/08 09:43:54;;;;;;;9.05;1.25;;;17.00;77.80;;;;;;4980030;28;20053;-64
2022/05/08 09:46:20;;;;;;;9.43;1.98;;;17.00;80.70;;;;;;4981821;28;20181;-64
2022/05/08 09:48:47;;;;;;;11.55;1.35;;;17.30;83.50;;;;;;4993335;28;20042;-64
2022/05/08 09:51:15;;;;;;;8.98;1.45;;;17.20;79.20;;;;;;4977138;28;20050;-64
2022/05/08 09:53:42;;;;;;;9.60;2.35;;;17.10;80.30;;;;;;4994513;28;20377;-64
2022/05/08 09:56:11;;;;;;;8.88;1.58;;;17.10;79.70;;;;;;4999180;28;20046;-64
2022/05/08 09:58:40;;;;;;;7.72;1.30;;;17.20;80.20;;;;;;4979890;28;20052;-64
2022/05/08 10:01:07;;;;;;;9.02;1.50;;;17.00;79.70;;;;;;4998955;28;20460;-64
2022/05/08 10:03:33;;;;;;;8.48;1.85;;;17.10;79.70;;;;;;5001829;28;20129;-64
2022/05/08 10:06:02;;;;;;;11.43;1.95;;;17.20;82.10;;;;;;4977433;28;20137;-64
2022/05/08 10:08:37;;;;;;;5.15;1.30;;;17.40;81.20;;;;;;5001741;28;20851;-64
2022/05/08 10:13:57;;;;;;;6.32;1.23;;;17.60;75.20;;;;;;5000914;28;20053;-64
2022/05/08 10:16:44;;;;;;;9.18;1.65;;;17.40;73.80;;;;;;4980142;28;20140;-64
2022/05/08 10:19:25;;;;;;;11.05;1.80;;;17.40;74.40;;;;;;4985900;28;20062;-64
2022/05/08 10:21:56;;;;;;;7.28;1.15;;;17.50;75.50;;;;;;4994216;28;20104;-64
2022/05/08 10:24:34;;;;;;;7.40;0.90;;;17.50;74.10;;;;;;4991870;28;20044;-64
2022/05/08 10:27:29;;;;;;;8.52;1.45;;;17.40;75.10;;;;;;4983322;28;20290;-64
2022/05/08 10:29:54;;;;;;;12.40;1.90;;;17.50;75.20;;;;;;4978800;28;20182;-63
2022/05/08 10:32:31;;;;;;;5.82;1.50;;;17.70;74.80;;;;;;4980017;28;20573;-63
2022/05/08 10:35:14;;;;;;;10.55;1.80;;;17.80;74.60;;;;;;4978617;28;20054;-64
2022/05/08 10:37:49;;;;;;;7.65;1.58;;;17.80;73.00;;;;;;4977172;28;20046;-63
2022/05/08 10:40:23;;;;;;;27.45;4.60;;;17.60;74.00;;;;;;4997892;28;20042;-63
2022/05/08 10:42:55;;;;;;;16.20;3.00;;;17.40;76.00;;;;;;4994587;28;20041;-63
2022/05/08 10:45:32;;;;;;;9.82;1.50;;;17.60;75.50;;;;;;4992838;28;20546;-63
2022/05/08 10:48:12;;;;;;;9.38;2.25;;;17.70;76.40;;;;;;4973950;28;20044;-64
2022/05/08 10:50:51;;;;;;;6.25;1.17;;;17.80;76.10;;;;;;4977622;28;21839;-64
2022/05/08 10:53:28;;;;;;;13.10;1.58;;;17.70;75.40;;;;;;4977744;28;20049;-64
2022/05/08 10:56:09;;;;;;;7.80;1.42;;;17.40;73.20;;;;;;4979055;28;20263;-64
2022/05/08 10:58:38;;;;;;;8.75;1.40;;;17.40;75.70;;;;;;4976985;28;20071;-64
2022/05/08 11:01:06;;;;;;;8.18;1.50;;;17.50;72.20;;;;;;4994709;28;20046;-64
2022/05/08 11:03:35;;;;;;;6.30;1.50;;;17.50;76.00;;;;;;4997526;28;20053;-64
2022/05/08 11:06:01;;;;;;;6.95;1.83;;;17.60;75.10;;;;;;4997455;28;20044;-64
2022/05/08 11:08:32;;;;;;;10.30;1.42;;;17.40;70.40;;;;;;4963605;28;20092;-64
2022/05/08 11:10:58;;;;;;;6.32;1.20;;;17.30;70.80;;;;;;4998033;28;20049;-64
2022/05/08 11:13:26;;;;;;;12.38;1.65;;;17.10;75.60;;;;;;4996834;28;20052;-64
2022/05/08 11:15:52;;;;;;;10.25;1.90;;;17.20;78.90;;;;;;4994806;28;20439;-64
2022/05/08 11:18:20;;;;;;;8.55;1.92;;;17.50;79.10;;;;;;4978585;28;20048;-64
2022/05/08 11:20:55;;;;;;;14.80;2.00;;;17.70;75.30;;;;;;4997261;28;20172;-64
2022/05/08 11:23:23;;;;;;;7.40;1.17;;;17.80;75.00;;;;;;4978801;28;20129;-64
2022/05/08 11:25:52;;;;;;;7.60;1.35;;;18.00;77.20;;;;;;4999571;28;20042;-64
2022/05/08 11:28:20;;;;;;;8.85;2.08;;;18.00;73.90;;;;;;4975430;28;20048;-64
2022/05/08 11:30:47;;;;;;;8.07;1.35;;;18.00;72.80;;;;;;4997654;28;20046;-64
2022/05/08 11:36:04;;;;;;;9.38;1.60;;;18.10;74.10;;;;;;4984078;28;20054;-64
2022/05/08 11:38:41;;;;;;;9.50;1.55;;;18.30;73.60;;;;;;4980655;28;20132;-65
2022/05/08 11:41:28;;;;;;;9.50;1.50;;;18.40;73.40;;;;;;4983448;28;20057;-64
2022/05/08 11:43:59;;;;;;;5.30;1.20;;;18.30;70.00;;;;;;4982309;28;20062;-64
2022/05/08 11:46:35;;;;;;;9.18;2.03;;;18.20;70.40;;;;;;4979905;28;20041;-64
2022/05/08 11:49:01;;;;;;;6.53;1.92;;;18.20;72.80;;;;;;4997246;28;20133;-64
2022/05/08 11:51:42;;;;;;;6.13;1.45;;;18.40;69.90;;;;;;4979650;28;20984;-64
2022/05/08 11:54:29;;;;;;;11.35;2.03;;;18.50;71.50;;;;;;4991674;28;20160;-65
2022/05/08 11:57:17;;;;;;;10.52;1.90;;;18.50;73.30;;;;;;4982194;28;20038;-64
2022/05/08 12:00:16;;;;;;;12.70;1.52;;;18.70;72.80;;;;;;4997364;28;20058;-64
2022/05/08 12:02:43;;;;;;;7.60;1.67;;;18.70;72.50;;;;;;4980678;28;20164;-63
2022/05/08 12:05:18;;;;;;;6.47;1.42;;;18.70;72.50;;;;;;4998618;28;20153;-64
2022/05/08 12:07:45;;;;;;;8.00;1.33;;;18.70;71.70;;;;;;4998794;28;20555;-63
2022/05/08 12:10:12;;;;;;;8.77;1.67;;;18.80;72.40;;;;;;4981201;28;20060;-63
2022/05/08 12:12:39;;;;;;;11.45;1.52;;;18.80;71.20;;;;;;4999975;28;20049;-64
2022/05/08 12:15:08;;;;;;;8.82;1.90;;;18.90;70.10;;;;;;4982221;28;20141;-64
2022/05/08 12:17:40;;;;;;;11.60;1.55;;;18.80;70.40;;;;;;4986048;28;20120;-64
2022/05/08 12:20:14;;;;;;;9.27;1.92;;;18.70;70.00;;;;;;4987926;28;20222;-64
2022/05/08 12:22:41;;;;;;;10.73;2.50;;;18.70;67.20;;;;;;5001769;28;20030;-64
2022/05/08 12:25:07;;;;;;;44.40;7.45;;;18.80;67.90;;;;;;5000096;28;20278;-64
2022/05/08 12:27:34;;;;;;;24.85;2.42;;;18.60;66.50;;;;;;4999743;28;20037;-63
2022/05/08 12:30:00;;;;;;;18.80;2.47;;;18.70;68.90;;;;;;4980420;28;20058;-63
2022/05/08 12:32:27;;;;;;;11.07;2.33;;;18.50;67.50;;;;;;4997596;28;20042;-63
2022/05/08 12:34:54;;;;;;;6.78;1.33;;;18.20;67.60;;;;;;4976846;28;20045;-64
2022/05/08 12:37:21;;;;;;;8.68;2.13;;;18.20;65.10;;;;;;4990855;28;20112;-63
2022/05/08 12:39:46;;;;;;;7.25;1.77;;;18.20;71.20;;;;;;4998036;28;20058;-63
2022/05/08 12:42:12;;;;;;;18.55;3.75;;;18.00;68.90;;;;;;4946391;28;20050;-63
2022/05/08 12:44:38;;;;;;;13.05;1.77;;;18.00;68.30;;;;;;4977548;28;20133;-63
2022/05/08 12:47:05;;;;;;;9.25;1.35;;;18.20;70.70;;;;;;4985525;28;20121;-63
2022/05/08 12:49:32;;;;;;;13.80;2.78;;;18.40;72.50;;;;;;4992633;28;20175;-63
2022/05/08 12:51:58;;;;;;;8.95;1.80;;;18.40;70.00;;;;;;4988425;28;20033;-63
2022/05/08 12:54:23;;;;;;;12.52;2.30;;;18.60;67.50;;;;;;4984979;28;20048;-64
2022/05/08 12:56:49;;;;;;;6.60;2.30;;;18.60;66.80;;;;;;4981633;28;20050;-63
2022/05/08 13:01:59;;;;;;;9.88;2.00;;;18.30;67.90;;;;;;4986391;28;20388;-64
2022/05/08 13:04:25;;;;;;;14.45;1.73;;;18.50;66.80;;;;;;4998363;28;20069;-63
2022/05/08 13:06:51;;;;;;;8.07;1.38;;;18.50;67.80;;;;;;5000103;28;20121;-64
2022/05/08 13:09:16;;;;;;;6.85;1.42;;;18.60;69.00;;;;;;4979312;28;20129;-64
2022/05/08 13:11:42;;;;;;;7.30;1.58;;;18.70;64.50;;;;;;4982257;28;20076;-63
2022/05/08 13:14:08;;;;;;;5.93;1.05;;;18.50;65.00;;;;;;4972445;28;20180;-61
2022/05/08 13:16:34;;;;;;;7.88;1.75;;;18.60;67.80;;;;;;4970048;28;20049;-64
2022/05/08 13:19:00;;;;;;;11.85;1.58;;;18.80;67.00;;;;;;4988924;28;20224;-65